x

9410230 - La Jolla, Ca (ljac1) Weather Station

4:54 - Mon 6th Jul 2015 All times are PDT. -7 hours from GMT.

  • Wind
    3mph, 5mph gusts
  • Sea Temp 70°f
  • Air Temp 66°f
  • Sea Pressure 1016.1mb
  • 9410230 - La Jolla, Ca
  • 9410230 - La Jolla, Ca

More Historic Weather Station data

Upgrade to MSW Pro to gain access to the past 30 days of data for over 8000 Wavebouys and Weather Stations around the globe.

Join Pro

Comparision Forecast

View Surf forecast
   
lun. 07/06 4:54 3 5 mph 1016.1mb 70f 66f
4:48 3 5 mph 1016.1mb 70f 66f
4:42 3 6 mph 1016.1mb 70f 66f
4:36 5 6 mph 1016.1mb 70f 66f
4:30 3 5 mph 1016mb 70f 65f
4:24 2 5 mph 1016mb 70f 65f
4:18 3 5 mph 1016mb 70f 65f
4:12 2 3 mph 1016mb 70f 65f
4:06 2 3 mph 1016mb 70f 65f
4:00 2 5 mph 1016mb 69f 65f
3:54 5 6 mph 1016mb 70f 65f
3:48 3 5 mph 1016mb 69f 65f
3:42 2 7 mph 1016mb 70f 65f
3:36 2 5 mph 1016.1mb 70f 65f
3:30 3 6 mph 1016.1mb 70f 65f
3:24 3 5 mph 1016.1mb 70f 65f
3:18 2 6 mph 1016.1mb 69f 65f
3:12 6 7 mph 1016mb 69f 65f
3:06 6 7 mph 1016mb 69f 65f
3:00 5 6 mph 1016mb 69f 65f
2:54 5 6 mph 1016mb 69f 65f
2:48 5 7 mph 1016mb 69f 65f
2:42 3 6 mph 1016.1mb 69f 65f
2:36 3 6 mph 1016.1mb 69f 65f
2:30 5 6 mph 1016.1mb 69f 65f
2:24 6 7 mph 1016.1mb 69f 65f
2:18 2 6 mph 1016mb 69f 65f
2:12 5 6 mph 1016.1mb 69f 65f
2:06 5 6 mph 1016.1mb 69f 66f
2:00 5 6 mph 1016.1mb 69f 66f
1:54 5 7 mph 1016.1mb 69f 66f
1:48 3 6 mph 1016.2mb 70f 66f
1:42 3 5 mph 1016.1mb 70f 66f
1:36 3 5 mph 1016.1mb 70f 66f
1:30 3 5 mph 1016.2mb 70f 65f
1:24 3
mph
1016.2mb 70f 65f
1:18 2 3 mph 1016.2mb 70f 65f
1:12 2 5 mph 1016.1mb 70f 65f
1:06 3
mph
1016.2mb 70f 65f
1:00 3 5 mph 1016.2mb 70f 65f
12:54 3 6 mph 1016.3mb 70f 65f
12:48 2 3 mph 1016.3mb 70f 65f
12:42 5 7 mph 1016.3mb 70f 65f
12:36 3 6 mph 1016.4mb 70f 66f
12:30 5 6 mph 1016.4mb 70f 66f
12:24 5 6 mph 1016.4mb 70f 66f
12:18 5 6 mph 1016.4mb 70f 66f
12:12 3 6 mph 1016.4mb 70f 66f
12:06 5 7 mph 1016.3mb 70f 66f
12:00 5 6 mph 1016.3mb 70f 66f
dim. 07/05 11:54 6 7 mph 1016.3mb 70f 66f
11:48  -  mph - 70f -
11:42  -  mph - 70f -
11:36  -  mph - 70f -
11:30 6 8 mph 1016.3mb 70f 66f
11:24 6 9 mph 1016.3mb 70f 66f
11:18 7 8 mph 1016.3mb 70f 66f
11:12 6 9 mph 1016.4mb 70f 66f
11:06 7 9 mph 1016.5mb 70f 66f
11:00 7 8 mph 1016.6mb 70f 66f
10:54 6 8 mph 1016.6mb 70f 66f
10:48 7 9 mph 1016.4mb 70f 66f
10:42 7 10 mph 1016.4mb 70f 66f
10:36 5 7 mph 1016.5mb 70f 66f
10:30 3 8 mph 1016.5mb 70f 66f
10:24 6 8 mph 1016.4mb 70f 66f
10:18 5 6 mph 1016.4mb 70f 66f
10:12 3 5 mph 1016.3mb 70f 66f
10:06 5 6 mph 1016.3mb 70f 66f
10:00 6 7 mph 1016.3mb 70f 66f
9:54 5 6 mph 1016.2mb 70f 66f
9:48 2 3 mph 1016.3mb 70f 66f
9:42 3 5 mph 1016.1mb 70f 66f
9:36 2 5 mph 1016mb 70f 67f
9:30 3 5 mph 1015.9mb 70f 66f
9:24 3 6 mph 1015.9mb 70f 66f
9:18 6 7 mph 1015.9mb 70f 66f
9:12 5 6 mph 1015.8mb 69f 66f
9:06 2 3 mph 1015.8mb 70f 66f
9:00 3 6 mph 1015.7mb 69f 67f
8:54 2 3 mph 1015.5mb 70f 66f
8:48 5
mph
1015.5mb 70f 66f
8:42 3 6 mph 1015.4mb 70f 66f
8:36 5 6 mph 1015.4mb 70f 66f
8:30 5 6 mph 1015.3mb 70f 66f
8:24 5 6 mph 1015.4mb 70f 66f
8:18 3 6 mph 1015.4mb 70f 67f
8:12 5 8 mph 1015.4mb 69f 66f
8:06 6 8 mph 1015.4mb 69f 66f
8:00 2 6 mph 1015.4mb 67f 67f
7:54 5 8 mph 1015.3mb 67f 67f
7:48 3 7 mph 1015.2mb 67f 67f
7:42 6 8 mph 1015.2mb 67f 66f
7:36 6 7 mph 1015.1mb 67f 67f
7:30 5 7 mph 1014.9mb 68f 67f
7:24 2 5 mph 1014.9mb 69f 67f
7:18 3 7 mph 1014.9mb 69f 67f
7:12 7 8 mph 1014.9mb 70f 67f
7:06 6 8 mph 1014.8mb 70f 67f
7:00 5 8 mph 1014.7mb 70f 67f
6:54 6 8 mph 1014.7mb 70f 67f
6:48 6 8 mph 1014.8mb 70f 67f
6:42 6 9 mph 1014.8mb 70f 67f
6:36 7 8 mph 1014.7mb 70f 67f
6:30 8 9 mph 1014.7mb 70f 67f
6:24 8 10 mph 1014.7mb 70f 67f
6:18 8 9 mph 1014.6mb 69f 67f
6:12 6 8 mph 1014.6mb 69f 67f
6:06 6 8 mph 1014.6mb 70f 67f
6:00 7 8 mph 1014.6mb 69f 67f
5:54 6 7 mph 1014.6mb 70f 67f
5:48 5 8 mph 1014.6mb 70f 67f
5:42 6 9 mph 1014.6mb 70f 67f
5:36 8 9 mph 1014.6mb 70f 67f
5:30 5 8 mph 1014.6mb 70f 67f
5:24 6 8 mph 1014.6mb 71f 67f
5:18 7 9 mph 1014.7mb 71f 67f
5:12 7 11 mph 1014.7mb 71f 67f
5:06 8 10 mph 1014.7mb 71f 67f
5:00 8 10 mph 1014.7mb 71f 67f
4:54 8 10 mph 1014.7mb 71f 67f
4:48 8 10 mph 1014.7mb 71f 68f
4:42 9 10 mph 1014.7mb 71f 67f
4:36 7 10 mph 1014.7mb 71f 68f
4:30 7 10 mph 1014.6mb 71f 68f
4:24 8 10 mph 1014.7mb 71f 67f
4:18 8 10 mph 1014.8mb 70f 68f
4:12 8 10 mph 1014.8mb 70f 68f
4:06 7 9 mph 1014.8mb 70f 68f
4:00 7 10 mph 1014.9mb 70f 68f
3:54 7 9 mph 1014.9mb 70f 67f
3:48 7 9 mph 1014.9mb 71f 68f
3:42 8 10 mph 1014.9mb 71f 68f
3:36 7 10 mph 1015mb 71f 67f
3:30 7 10 mph 1015mb 71f 67f
3:24 8 10 mph 1015mb 70f 67f
3:18 8 10 mph 1014.9mb 70f 67f
3:12 9 11 mph 1015mb 70f 67f
3:06 8 10 mph 1015mb 70f 67f
3:00 7 10 mph 1015mb 70f 68f
2:54 7 10 mph 1015mb 70f 68f
2:48 6 9 mph 1015.1mb 71f 68f
2:42 7 9 mph 1015.1mb 71f 68f
2:36 6 8 mph 1015.2mb 71f 68f
2:30 7 9 mph 1015.2mb 71f 67f
2:24 7 8 mph 1015.2mb 71f 67f
2:18 6 8 mph 1015.2mb 71f 67f
2:12 7 10 mph 1015.3mb 71f 67f
2:06 8 9 mph 1015.4mb 71f 67f
2:00 7 9 mph 1015.4mb 71f 67f
1:54 6 9 mph 1015.5mb 71f 67f
1:48 6 8 mph 1015.5mb 71f 67f
1:42 8 9 mph 1015.5mb 71f 67f
1:36 7 8 mph 1015.5mb 71f 67f
1:30 7 8 mph 1015.6mb 71f 66f
1:24 8 10 mph 1015.6mb 71f 66f
1:18 8 10 mph 1015.7mb 71f 66f
1:12 7 10 mph 1015.7mb 71f 66f
1:06 8 10 mph 1015.7mb 71f 66f
1:00 8 10 mph 1015.8mb 71f 66f
12:54 8 10 mph 1015.8mb 71f 66f
12:48 8 10 mph 1015.9mb 71f 66f
12:42 8 10 mph 1015.9mb 71f 66f
12:36 7 10 mph 1015.9mb 71f 66f
12:30 8 9 mph 1016mb 71f 66f
12:24 8 9 mph 1016mb 71f 65f
12:18 7 9 mph 1016mb 71f 65f
12:12 7 9 mph 1016.1mb 71f 65f
12:06 7 9 mph 1016.1mb 71f 66f
12:00 7 9 mph 1016.1mb 71f 65f
11:54 9 10 mph 1016.1mb 71f 65f
11:48 8 10 mph 1016.1mb 71f 66f
11:42 8 10 mph 1016.1mb 70f 65f
11:36 8 10 mph 1016.1mb 70f 65f
11:30 6 9 mph 1016.1mb 70f 66f
11:24 7 9 mph 1016.1mb 70f 66f
11:18 7 9 mph 1016.1mb 70f 65f
11:12 6 8 mph 1016mb 70f 65f
11:06 7 9 mph 1016mb 70f 65f
11:00 7 9 mph 1015.9mb 70f 65f
10:54 8 9 mph 1015.8mb 70f 66f
10:48 7 9 mph 1015.8mb 70f 66f
10:42 7 8 mph 1015.8mb 70f 66f
10:36 6 8 mph 1015.8mb 70f 66f
10:30 5 7 mph 1015.7mb 69f 66f
10:24 7 8 mph 1015.7mb 70f 65f
10:18 6 8 mph 1015.7mb 70f 65f
10:12 6 8 mph 1015.6mb 70f 66f
10:06 6 7 mph 1015.6mb 70f 66f
10:00 6 8 mph 1015.6mb 70f 66f
9:54 5 6 mph 1015.6mb 70f 67f
9:48 5 6 mph 1015.6mb 70f 67f
9:42 3 6 mph 1015.6mb 69f 67f
9:36 3 5 mph 1015.6mb 69f 68f
9:30 1 3 mph 1015.6mb 68f 68f
9:24 2 3 mph 1015.7mb 67f 68f
9:18 1 3 mph 1015.7mb 67f 67f
9:12 2 3 mph 1015.7mb 67f 67f
9:06  -  2 mph 1015.8mb 67f 67f
9:00 2 5 mph 1015.7mb 67f 67f
8:54 2 3 mph 1015.6mb 67f 66f
8:48 2 3 mph 1015.6mb 67f 66f
8:42 2
mph
1015.5mb 67f 66f
8:36 2 3 mph 1015.5mb 67f 66f
8:30 2 3 mph 1015.5mb 68f 66f
8:24 3 5 mph 1015.4mb 69f 66f
8:18 3 5 mph 1015.3mb 71f 66f
8:12 3 5 mph 1015.2mb 71f 66f
8:06 3 6 mph 1015.1mb 71f 66f
8:00 2 3 mph 1015.1mb 71f 66f
7:54 2 3 mph 1015mb 71f 66f
7:48 3
mph
1014.9mb 70f 65f
7:42 2 5 mph 1014.9mb 71f 65f
7:36 3 5 mph 1014.8mb 71f 65f
7:30 3 6 mph 1014.7mb 71f 65f
7:24 5 6 mph 1014.7mb 71f 65f
7:18 5 6 mph 1014.7mb 70f 65f
7:12 5 6 mph 1014.6mb 70f 65f
7:06 2 5 mph 1014.6mb 70f 65f
7:00 3 5 mph 1014.7mb 70f 65f
6:54 2 5 mph 1014.5mb 69f 65f
6:48 5 6 mph 1014.5mb 65f 65f
6:42 5 6 mph 1014.4mb 63f 65f
6:36 3
mph
1014.4mb 63f 65f
6:30 2 3 mph 1014.4mb 64f 65f
6:24 2 5 mph 1014.4mb 66f 65f
6:18 3 5 mph 1014.2mb 68f 65f
6:12  -  2 mph 1014.2mb 70f 65f
6:06 2 6 mph 1014.2mb 69f 65f
6:00 3 6 mph 1014.1mb 70f 65f
5:54 1 2 mph 1014.1mb 70f 65f
5:48 1 3 mph 1014.1mb 70f 65f
5:42 2 3 mph 1014mb 70f 65f
5:36 2 5 mph 1013.9mb 70f 65f
5:30 3
mph
1013.9mb 70f 65f
5:24 2 6 mph 1013.9mb 69f 65f
5:18 2 3 mph 1013.8mb 70f 65f
5:12  -  3 mph 1013.7mb 70f 65f
5:06 3 5 mph 1013.7mb 70f 65f
5:00 5 6 mph 1013.7mb 70f 65f
4:54 3 5 mph 1013.7mb 70f 65f
4:48 1 6 mph 1013.7mb 70f 65f
4:42 3 8 mph 1013.6mb 70f 65f
4:36 5 6 mph 1013.6mb 70f 65f
4:30 3 5 mph 1013.6mb 69f 65f
4:24 1 6 mph 1013.6mb 69f 65f
4:18 2 5 mph 1013.6mb 69f 65f
4:12 6
mph
1013.4mb 70f 65f
4:06 5 7 mph 1013.4mb 69f 65f
4:00 5 6 mph 1013.4mb 68f 65f
3:54 5 6 mph 1013.3mb 68f 65f
3:48 6 8 mph 1013.3mb 67f 65f
3:42 6 7 mph 1013.3mb 67f 65f
3:36 3 6 mph 1013.3mb 67f 65f
3:30 6 8 mph 1013.3mb 67f 65f
3:24 7 8 mph 1013.4mb 68f 65f
3:18 7 8 mph 1013.4mb 68f 65f
3:12 6 8 mph 1013.4mb 67f 65f
3:06 7 9 mph 1013.4mb 69f 65f
3:00 7 8 mph 1013.3mb 70f 65f
2:54 6
mph
1013.3mb 70f 65f
2:48 5 7 mph 1013.3mb 70f 65f
2:42 6 7 mph 1013.4mb 70f 65f
2:36 5 6 mph 1013.5mb 70f 65f
2:30 5
mph
1013.6mb 70f 65f
2:24 5
mph
1013.6mb 70f 65f
2:18 3 5 mph 1013.6mb 70f 65f
2:12 2 3 mph 1013.6mb 70f 65f
2:06 2 3 mph 1013.6mb 70f 65f
2:00 3 5 mph 1013.7mb 70f 65f
1:54 2 3 mph 1013.7mb 70f 65f
1:48 2 5 mph 1013.6mb 70f 65f
1:42  -  3 mph 1013.7mb 70f 65f
1:36  -  5 mph 1013.7mb 71f 65f
1:30 5 6 mph 1013.6mb 71f 65f
1:24 5 6 mph 1013.6mb 71f 65f
1:18 3 6 mph 1013.5mb 71f 65f
1:12 5 6 mph 1013.5mb 71f 66f
1:06 3 6 mph 1013.6mb 71f 65f
1:00 2 6 mph 1013.6mb 71f 65f
12:54 5 6 mph 1013.7mb 71f 65f
12:48 6 7 mph 1013.7mb 71f 65f
12:42 3 5 mph 1013.8mb 71f 66f
12:36 2 6 mph 1013.7mb 71f 65f
12:30 3 6 mph 1013.8mb 71f 66f
12:24  -  1 mph 1013.8mb 71f 66f
12:18 1 2 mph 1013.8mb 71f 66f
12:12 2 6 mph 1013.9mb 71f 66f
12:06 3 5 mph 1014mb 71f 66f
12:00 2 3 mph 1013.9mb 71f 66f
sam. 07/04 11:54 3 5 mph 1013.9mb 71f 66f
11:48  -  mph - - 66f
11:42  -  mph - - 66f
11:36  -  mph - - 66f
11:30 1 3 mph 1014mb 71f 66f
11:24 2 5 mph 1014mb 71f 66f
11:18 3 6 mph 1014.1mb 71f 66f
11:12 5 6 mph 1014.1mb 72f 66f
11:06 3 5 mph 1014.2mb 72f 66f
11:00 5 6 mph 1014.2mb 72f 66f
10:54 5
mph
1014.2mb 72f 66f
10:48 3 5 mph 1014.2mb 72f 66f
10:42  -  3 mph 1014.2mb 72f 66f
10:36 5
mph
1014.2mb 72f 66f
10:30 3 6 mph 1014.2mb 72f 66f
10:24 3 6 mph 1014.2mb 72f 66f
10:18 5 6 mph 1014.2mb 72f 66f
10:12 5 6 mph 1014.1mb 72f 66f
10:06 5 6 mph 1014mb 72f 66f
10:00 5 7 mph 1014mb 72f 66f
9:54 2 5 mph 1013.9mb 72f 66f
9:48 6
mph
1013.8mb 72f 66f
9:42 3 6 mph 1013.8mb 72f 66f
9:36 7 8 mph 1013.7mb 72f 66f
9:30 3 5 mph 1013.6mb 72f 66f
9:24  -  8 mph 1013.5mb 72f 66f
9:18 7 8 mph 1013.4mb 72f 66f
9:12 3 8 mph 1013.4mb 72f 66f
9:06 5 6 mph 1013.3mb 72f 66f
9:00 3 9 mph 1013.3mb 72f 65f
8:54 7 9 mph 1013.3mb 72f 65f
8:48 5 7 mph 1013.3mb 72f 65f
8:42 5 9 mph 1013.1mb 72f 65f
8:36 6 8 mph 1013.1mb 72f 66f
8:30 3 7 mph 1013mb 71f 65f
8:24 6 9 mph 1013mb 71f 65f
8:18 8 9 mph 1013mb 71f 65f
8:12 6 7 mph 1012.9mb 71f 66f
8:06 5 7 mph 1012.9mb 71f 65f
8:00 3 7 mph 1012.8mb 72f 65f
7:54 5 8 mph 1012.8mb 72f 65f
7:48 8 10 mph 1012.6mb 72f 65f
7:42 8 10 mph 1012.5mb 72f 65f
7:36 3 8 mph 1012.4mb 72f 66f
7:30 7 11 mph 1012.4mb 72f 65f
7:24 8 10 mph 1012.3mb 72f 65f
7:18 7 10 mph 1012.4mb 72f 66f
7:12 8 10 mph 1012.3mb 72f 65f
7:06 7 9 mph 1012.2mb 72f 66f
7:00 9 13 mph 1012.1mb 72f 65f
6:54 8 11 mph 1012mb 72f 66f
6:48 7 9 mph 1011.9mb 72f 66f
6:42 8 11 mph 1011.8mb 72f 66f
6:36 7 9 mph 1011.8mb 72f 66f
6:30 7 9 mph 1011.8mb 72f 66f
6:24 8 10 mph 1011.7mb 71f 66f
6:18 5 10 mph 1011.7mb 71f 66f
6:12 9 10 mph 1011.7mb 71f 66f
6:06 7 10 mph 1011.7mb 71f 66f
6:00 5 10 mph 1011.7mb 71f 66f
5:54 9 10 mph 1011.7mb 71f 65f
5:48 6 9 mph 1011.8mb 71f 66f
5:42 9 11 mph 1011.8mb 71f 66f
5:36 9 11 mph 1011.8mb 71f 66f
5:30 8 11 mph 1011.8mb 71f 66f
5:24 9 10 mph 1011.8mb 71f 66f
5:18 7 9 mph 1011.8mb 72f 66f
5:12 7 9 mph 1011.8mb 72f 66f
5:06 7 10 mph 1011.9mb 72f 67f
5:00 8 11 mph 1011.9mb 72f 66f
4:54 8 13 mph 1011.9mb 72f 67f
4:48 7 10 mph 1011.9mb 72f 67f
4:42 8 10 mph 1012mb 72f 66f
4:36 7 11 mph 1012mb 72f 67f
4:30 8 13 mph 1012mb 72f 67f
4:24 9 13 mph 1012mb 71f 67f
4:18 8 11 mph 1012mb 71f 67f
4:12 8 11 mph 1012.1mb 71f 67f
4:06 9 11 mph 1012.2mb 72f 67f
4:00 8 11 mph 1012.3mb 72f 67f
3:54 9 11 mph 1012.3mb 72f 68f
3:48 8 10 mph 1012.4mb 72f 68f
3:42 8 10 mph 1012.4mb 72f 67f
3:36 8 10 mph 1012.5mb 72f 67f
3:30 9 11 mph 1012.5mb 72f 67f
3:24 8 11 mph 1012.5mb 72f 68f
3:18 7 10 mph 1012.6mb 72f 68f
3:12 8 11 mph 1012.6mb 72f 68f
3:06 8 9 mph 1012.6mb 72f 68f
3:00 8 10 mph 1012.6mb 71f 67f
2:54 7 10 mph 1012.6mb 72f 68f
2:48 9 11 mph 1012.6mb 72f 68f
2:42 8 10 mph 1012.6mb 71f 68f
2:36 7 10 mph 1012.6mb 72f 68f
2:30 7 10 mph 1012.7mb 72f 68f
2:24 7 9 mph 1012.8mb 72f 68f
2:18 8 10 mph 1012.8mb 72f 68f
2:12 8 10 mph 1012.8mb 72f 68f
2:06 8 11 mph 1012.9mb 72f 68f
2:00 8 11 mph 1012.9mb 72f 68f
1:54 9 11 mph 1012.9mb 72f 68f
1:48 8 10 mph 1012.9mb 72f 68f
1:42 8 10 mph 1012.9mb 72f 68f
1:36 8 10 mph 1013mb 71f 68f
1:30 7 9 mph 1013mb 72f 68f
1:24 7 9 mph 1012.9mb 72f 68f
1:18 6 9 mph 1012.9mb 72f 68f
1:12 7 11 mph 1012.9mb 72f 68f
1:06 6 8 mph 1013mb 72f 68f
1:00 7 8 mph 1013.1mb 72f 68f
12:54 6 8 mph 1013.1mb 71f 68f
12:48 6 8 mph 1013.1mb 71f 68f
12:42 5 7 mph 1013.1mb 72f 68f
12:36 5 6 mph 1013.2mb 71f 68f
12:30 5 6 mph 1013.1mb 72f 68f
12:24 5 6 mph 1013.2mb 71f 68f
12:18 3 7 mph 1013.2mb 71f 68f
12:12 3 6 mph 1013.2mb 71f 68f
12:06 5 6 mph 1013.1mb 71f 67f
12:00 5 7 mph 1013.1mb 71f 67f
11:54 6 7 mph 1013.1mb 71f 67f
11:48 6 8 mph 1013.1mb 71f 67f
11:42 6 8 mph 1013.2mb 71f 67f
11:36 6 8 mph 1013.1mb 71f 67f
11:30 6 8 mph 1013.2mb 72f 67f
11:24 6 7 mph 1013.2mb 72f 67f
11:18 6 7 mph 1013.1mb 72f 67f
11:12 6 8 mph 1013.2mb 72f 67f
11:06 6 8 mph 1013.2mb 72f 67f
11:00 6 8 mph 1013.2mb 72f 67f
10:54 7 9 mph 1013.2mb 72f 67f
10:48 6 8 mph 1013.2mb 72f 67f
10:42 7 8 mph 1013.1mb 72f 66f
10:36 8 9 mph 1013.1mb 71f 66f
10:30 7 9 mph 1013mb 71f 66f
10:24 6 9 mph 1012.9mb 71f 66f
10:18 7 9 mph 1012.8mb 71f 66f
10:12 8 9 mph 1012.8mb 71f 66f
10:06 7 8 mph 1012.8mb 71f 66f
10:00 6 8 mph 1012.8mb 71f 66f
9:54 6 8 mph 1012.8mb 71f 66f
9:48 6 8 mph 1012.8mb 71f 66f
9:42 6 8 mph 1012.8mb 71f 66f
9:36 6 7 mph 1012.9mb 71f 66f
9:30 6 8 mph 1012.8mb 71f 66f
9:24 7 9 mph 1012.8mb 71f 66f
9:18 6 9 mph 1012.8mb 71f 66f
9:12 7 9 mph 1012.7mb 71f 66f
9:06 8 9 mph 1012.7mb 71f 66f
9:00 8 9 mph 1012.7mb 71f 66f
8:54 6 8 mph 1012.7mb 71f 66f
8:48 8 9 mph 1012.6mb 71f 66f
8:42 6 8 mph 1012.5mb 70f 66f
8:36 7 8 mph 1012.5mb 71f 66f
8:30 6 8 mph 1012.4mb 71f 66f
8:24 7 9 mph 1012.3mb 71f 66f
8:18 8 9 mph 1012.2mb 71f 66f
8:12 8
mph
1012.3mb 71f 66f
8:06 7 8 mph 1012.2mb 70f 66f
8:00 7 9 mph 1012.2mb 71f 66f
7:54 8 10 mph 1012.2mb 71f 66f
7:48 9 10 mph 1012.1mb 71f 66f
7:42 9 10 mph 1012mb 72f 67f
7:36 6 9 mph 1012.1mb 72f 67f
7:30 3 8 mph 1012mb 71f 67f
7:24 7 8 mph 1011.9mb 71f 67f
7:18 7 8 mph 1011.9mb 71f 67f
7:12 7 9 mph 1011.9mb 71f 67f
7:06 5 7 mph 1011.9mb 71f 67f
7:00 3 7 mph 1011.7mb 71f 67f
6:54 6 7 mph 1011.7mb 70f 67f
6:48 5 6 mph 1011.7mb 66f 67f
6:42 7 8 mph 1011.7mb 63f 67f
6:36 7 8 mph 1011.8mb 61f 67f
6:30 6 8 mph 1011.6mb 61f 67f
6:24 6 8 mph 1011.6mb 62f 67f
6:18 7 9 mph 1011.6mb 63f 67f
6:12 7 9 mph 1011.6mb 63f 67f
6:06 5 7 mph 1011.6mb 64f 67f
6:00 2 3 mph 1011.6mb 65f 67f
5:54 2 6 mph 1011.6mb 65f 68f
5:48 2 5 mph 1011.6mb 67f 68f
5:42 1 3 mph 1011.5mb 68f 67f
5:36 3 5 mph 1011.4mb 69f 67f
5:30 3 6 mph 1011.4mb 71f 67f
5:24 3 7 mph 1011.4mb 71f 67f
5:18 5 7 mph 1011.3mb 71f 67f
5:12 1 3 mph 1011.2mb 72f 67f
5:06 5 7 mph 1011.3mb 72f 67f
5:00 6 8 mph 1011.3mb 71f 67f
4:54 8
mph
1011.3mb 71f 67f
4:48 6 7 mph 1011.2mb 71f 67f
4:42 1 2 mph 1011.3mb 71f 67f
4:36 2 6 mph 1011.3mb 71f 67f
4:30 3 8 mph 1011.3mb 71f 67f
4:24 5 7 mph 1011.3mb 71f 67f
4:18 5 6 mph 1011.3mb 71f 67f
4:12  -  3 mph 1011.4mb 71f 67f
4:06 3 8 mph 1011.4mb 69f 67f
4:00 3 6 mph 1011.4mb 70f 67f
3:54 3 5 mph 1011.4mb 68f 67f
3:48 1 2 mph 1011.4mb 67f 67f
3:42 1 6 mph 1011.4mb 65f 67f
3:36 3 5 mph 1011.4mb 64f 67f
3:30 3 6 mph 1011.4mb 65f 67f
3:24 3 6 mph 1011.4mb 64f 67f
3:18 5 7 mph 1011.5mb 65f 67f
3:12 6 7 mph 1011.5mb 64f 67f
3:06 6 7 mph 1011.6mb 64f 67f
3:00 5 6 mph 1011.6mb 65f 67f
2:54 5 7 mph 1011.6mb 66f 67f
2:48 3 7 mph 1011.6mb 66f 67f
2:42 6 8 mph 1011.6mb 66f 67f
2:36 5 7 mph 1011.6mb 67f 68f
2:30 7 9 mph 1011.6mb 67f 67f
2:24 5 7 mph 1011.7mb 66f 68f
2:18 6 7 mph 1011.7mb 66f 67f
2:12 6 7 mph 1011.7mb 66f 68f
2:06 2 5 mph 1011.8mb 66f 68f
2:00 5 6 mph 1011.9mb 66f 68f
1:54 3 6 mph 1011.9mb 66f 68f
1:48 3 5 mph 1011.9mb 66f 67f
1:42  -  3 mph 1012mb 66f 67f
1:36 1 3 mph 1012mb 67f 67f
1:30  -  6 mph 1012mb 67f 67f
1:24 5 7 mph 1012mb 67f 67f
1:18 1 2 mph 1012.1mb 67f 67f
1:12 1 2 mph 1012.1mb 67f 67f
1:06  -  3 mph 1012.1mb 68f 67f
1:00 1 2 mph 1012.1mb 68f 67f
12:54 2 5 mph 1012.1mb 68f 67f
12:48 2 3 mph 1012.1mb 68f 67f
12:42 3 5 mph 1012.1mb 68f 67f
12:36 3 5 mph 1012.1mb 69f 67f
12:30  -  2 mph 1012.1mb 69f 67f
12:24 2 3 mph 1012.1mb 68f 67f
12:18 2 5 mph 1012.1mb 68f 67f
12:12 2 3 mph 1012.1mb 69f 67f
12:06 3
mph
1012.1mb 69f 67f
12:00 2 3 mph 1012.2mb 69f 67f
ven. 07/03 11:54 2
mph
1012.2mb 69f 67f
11:48  -  2 mph 1012.2mb 70f 67f
11:42 2 3 mph 1012.3mb 70f 67f
11:36 2 3 mph 1012.3mb 70f 67f
11:30 2 3 mph 1012.5mb - 67f
11:24 3 5 mph 1012.5mb - 67f
11:18 3 5 mph 1012.4mb 72f 67f
11:12 5 6 mph 1012.4mb 72f 67f
11:06 5 6 mph 1012.4mb 71f 67f
11:00 5 6 mph 1012.5mb 72f 67f
10:54 5 8 mph 1012.5mb 72f 67f
10:48 6 7 mph 1012.6mb 72f 67f
10:42 7 8 mph 1012.6mb 72f 67f
10:36 7 8 mph 1012.6mb 72f 67f
10:30 6 7 mph 1012.6mb 72f 67f
10:24 6 7 mph 1012.6mb 72f 67f
10:18 6 7 mph 1012.6mb 72f 67f
10:12 6 7 mph 1012.6mb 72f 68f
10:06 2 5 mph 1012.5mb 72f 68f
10:00 3 5 mph 1012.5mb 72f 68f
9:54  -  2 mph 1012.4mb 72f 67f
9:48 2 7 mph 1012.4mb 72f 67f
9:42 2 3 mph 1012.3mb 72f 67f
9:36  -  2 mph 1012.2mb 72f 67f
9:30 1 2 mph 1012.1mb 72f 67f
9:24 1 3 mph 1012.1mb 72f 67f
9:18 2 3 mph 1012mb 72f 67f
9:12 2 3 mph 1011.9mb 72f 67f
9:06 2 3 mph 1011.8mb 72f 67f
9:00 1 7 mph 1011.8mb 72f 67f
8:54 3 7 mph 1011.7mb 72f 67f
8:48 2 3 mph 1011.7mb 72f 67f
8:42 2 5 mph 1011.7mb 72f 67f
8:36 5
mph
1011.7mb 73f 67f
8:30 5 6 mph 1011.6mb 73f 67f
8:24 5 6 mph 1011.6mb 73f 67f
8:18 3 6 mph 1011.4mb 73f 67f
8:12 5 7 mph 1011.4mb 72f 66f
8:06 5 8 mph 1011.5mb 72f 66f
8:00 7 8 mph 1011.4mb 72f 67f
7:54 5 6 mph 1011.4mb 73f 67f
7:48 6 8 mph 1011.3mb 73f 66f
7:42 6 9 mph 1011.4mb 73f 66f
7:36 5 9 mph 1011.4mb 73f 67f
7:30 2 6 mph 1011.3mb 73f 67f
7:24 7 9 mph 1011.2mb 73f 67f
7:18 7 10 mph 1011.1mb 73f 67f
7:12 8 11 mph 1011.1mb 73f 67f
7:06 7 10 mph 1011mb 73f 67f
7:00 7 9 mph 1011mb 73f 67f
6:54 7 10 mph 1011mb 73f 67f
6:48 6 10 mph 1011mb 72f 67f
6:42 9 10 mph 1010.9mb 72f 67f
6:36 7 8 mph 1010.8mb 72f 67f
6:30 7 10 mph 1010.8mb 71f 67f
6:24 7 10 mph 1010.9mb 72f 67f
6:18 9 13 mph 1010.9mb 71f 67f
6:12 8 9 mph 1011mb 71f 66f
6:06 8 10 mph 1011mb 71f 66f
6:00 9 11 mph 1011mb 72f 66f
5:54 7 10 mph 1011mb 72f 66f
5:48 7 11 mph 1011mb 72f 66f
5:42 9 13 mph 1011mb 72f 66f
5:36 8 11 mph 1011mb 72f 67f
5:30 7 11 mph 1011.1mb 72f 67f
5:24 7 11 mph 1011.2mb 70f 67f
5:18 9 11 mph 1011.2mb 68f 67f
5:12 8 10 mph 1011.3mb 67f 67f
5:06 9 11 mph 1011.3mb 66f 67f
5:00 8 11 mph 1011.3mb 66f 67f
4:54 7 11 mph 1011.3mb 67f 67f
4:48 9 10 mph 1011.4mb 68f 67f
4:42 9 11 mph 1011.4mb 69f 67f
4:36 10 11 mph 1011.4mb 70f 67f
4:30 9 11 mph 1011.4mb 69f 67f
4:24 9 11 mph 1011.4mb 69f 68f
4:18 9 11 mph 1011.5mb 70f 68f
4:12 9 10 mph 1011.5mb 69f 68f
4:06 9 10 mph 1011.5mb 70f 68f
4:00 8 11 mph 1011.6mb 69f 68f
3:54 8 13 mph 1011.7mb 70f 67f
3:48 8 11 mph 1011.8mb 71f 67f
3:42 8 11 mph 1011.8mb 72f 68f
3:36 10 13 mph 1011.9mb 72f 68f
3:30 8 11 mph 1011.9mb 73f 68f
3:24 10 14 mph 1012mb 72f 68f
3:18 10 13 mph 1012mb 73f 67f
3:12 8 13 mph 1012.2mb 73f 68f
3:06 8 13 mph 1012.3mb 73f 68f
3:00 9 11 mph 1012.4mb 73f 68f
2:54 9 10 mph 1012.4mb 73f 68f
2:48 8 10 mph 1012.4mb 73f 68f
2:42 7 10 mph 1012.5mb 73f 68f
2:36 8 11 mph 1012.6mb 73f 68f
2:30 8 11 mph 1012.4mb 73f 68f
2:24 9 10 mph 1012.5mb 73f 68f
2:18 9 11 mph 1012.6mb 73f 68f
2:12 8 10 mph 1012.6mb 73f 68f
2:06 10 11 mph 1012.6mb 73f 68f
2:00 9 10 mph 1012.7mb 73f 68f
1:54 9 10 mph 1012.8mb 73f 68f
1:48 9 10 mph 1012.8mb 73f 68f
1:42 7 10 mph 1012.8mb 72f 69f
1:36 9 10 mph 1012.8mb 72f 68f
1:30 8 11 mph 1012.8mb 72f 68f
1:24 8 10 mph 1012.9mb 72f 68f
1:18 9 11 mph 1013mb 72f 68f
1:12 9 10 mph 1013mb 72f 68f
1:06 8 10 mph 1013.2mb 72f 68f
1:00 7 10 mph 1013.3mb 72f 68f
12:54 6 8 mph 1013.4mb 72f 68f
12:48 7 9 mph 1013.5mb 72f 68f
12:42 7 9 mph 1013.7mb 72f 68f
12:36 8 10 mph 1013.7mb 72f 68f
12:30 7 9 mph 1013.7mb 71f 68f
12:24 7 10 mph 1013.8mb 71f 68f
12:18 6 10 mph 1013.9mb 71f 68f
12:12 7 10 mph 1013.9mb 70f 69f
12:06 8 11 mph 1013.9mb 69f 69f
12:00 8 11 mph 1014.1mb 69f 68f
11:54 9 10 mph 1014.2mb 69f 69f
11:48 8 10 mph 1014.3mb 67f 69f
11:42 8 10 mph 1014.3mb 67f 68f
11:36 6 9 mph 1014.4mb 67f 69f
11:30 7 9 mph 1014.4mb 67f 69f
11:24 8 9 mph 1014.5mb 66f 68f
11:18 6 7 mph 1014.5mb 66f 69f
11:12 6 8 mph 1014.6mb 67f 69f
11:06 6 8 mph 1014.6mb 67f 69f
11:00 7 8 mph 1014.7mb 68f 68f
10:54 6 9 mph 1014.7mb 67f 68f
10:48 8
mph
1014.9mb 68f 68f
10:42 5 7 mph 1015mb 70f 68f
10:36 7 8 mph 1015mb 71f 68f
10:30 5 7 mph 1015mb 71f 69f
10:24 2 6 mph 1015.1mb 71f 69f
10:18 3
mph
1015.1mb 72f 69f
10:12 2 6 mph 1015.1mb 71f 69f
10:06 5
mph
1015.1mb 71f 69f
10:00 1 5 mph 1015.1mb 71f 69f
9:54 3 5 mph 1015.1mb 71f 69f
9:48 2 6 mph 1015.2mb 72f 69f
9:42 3 5 mph 1015.1mb 71f 68f
9:36 1 2 mph 1015.1mb 71f 69f
9:30 1 2 mph 1015.2mb 71f 68f
9:24 1 2 mph 1015.2mb 71f 68f
9:18 2
mph
1015.1mb 72f 68f
9:12 1 2 mph 1015mb 72f 68f
9:06 1 2 mph 1015mb 72f 68f
9:00 2 3 mph 1015mb 72f 67f
8:54 2 5 mph 1015mb 72f 67f
8:48 5 6 mph 1015mb 72f 67f
8:42 2 5 mph 1015mb 72f 67f
8:36 5 6 mph 1015mb 72f 67f
8:30 3 5 mph 1015mb 72f 67f
8:24 2 3 mph 1014.9mb 72f 67f
8:18 2 6 mph 1014.8mb 72f 67f
8:12 6 7 mph 1014.8mb 72f 67f
8:06 5 6 mph 1014.7mb 72f 67f
8:00 2 3 mph 1014.8mb 72f 67f
7:54  -  2 mph 1014.8mb 72f 67f
7:48 2 3 mph 1014.8mb 72f 67f
7:42 2
mph
1014.8mb 72f 67f
7:36  -  1 mph 1014.9mb 72f 67f
7:30  -  2 mph 1014.8mb 72f 67f
7:24  -  2 mph 1014.6mb 72f 67f
7:18 3 5 mph 1014.7mb 72f 66f
7:12 3 5 mph 1014.8mb 72f 66f
7:06  -  2 mph 1014.7mb 72f 67f
7:00 2 3 mph 1014.6mb 72f 66f
6:54 5 6 mph 1014.6mb 72f 66f
6:48 3 5 mph 1014.5mb 72f 67f
6:42 3 5 mph 1014.5mb 72f 67f
6:36 3
mph
1014.6mb 72f 67f
6:30 1 2 mph 1014.5mb 72f 67f
6:24 2 6 mph 1014.5mb 72f 67f
6:18 3 5 mph 1014.5mb 72f 67f
6:12 3 5 mph 1014.5mb 72f 67f
6:06 3 5 mph 1014.3mb 72f 67f
6:00 3 5 mph 1014.1mb 72f 67f
5:54 2 6 mph 1014.2mb 72f 67f
5:48 2 3 mph 1014.2mb 72f 67f
5:42 2 6 mph 1014.2mb 71f 67f
5:36 5 6 mph 1014.1mb 70f 67f
5:30 7 8 mph 1014mb 69f 67f
5:24 6 8 mph 1013.9mb 68f 67f
5:18 2 6 mph 1013.9mb 67f 67f
5:12 5 7 mph 1013.9mb 68f 67f
5:06 6 8 mph 1013.9mb 69f 68f
5:00 6 8 mph 1013.8mb 69f 68f
4:54 7 8 mph 1013.8mb 69f 68f
4:48 6 8 mph 1013.7mb 70f 68f
4:42 6 9 mph 1013.7mb 71f 68f
4:36 5 8 mph 1013.6mb 71f 68f
4:30 3 6 mph 1013.6mb 72f 68f
4:24 7 8 mph 1013.6mb 72f 68f
4:18 3 6 mph 1013.6mb 72f 68f
4:12 6 8 mph 1013.6mb 72f 68f
4:06 7 9 mph 1013.5mb 72f 68f
4:00 8 9 mph 1013.6mb 72f 68f
3:54 6 8 mph 1013.7mb 72f 68f
3:48 3 5 mph 1013.7mb 72f 68f
3:42  -  7 mph 1013.7mb 72f 68f
3:36 5 6 mph 1013.7mb 72f 68f
3:30 7 8 mph 1013.8mb 72f 68f
3:24 6
mph
1013.8mb 71f 68f
3:18 5 8 mph 1013.8mb 70f 68f
3:12 6 9 mph 1013.7mb 69f 68f
3:06 5 6 mph 1013.8mb 69f 68f
3:00 3 6 mph 1013.9mb 68f 68f
2:54 5 7 mph 1013.9mb 68f 68f
2:48 5 6 mph 1014mb 68f 69f
2:42 5 7 mph 1013.9mb 68f 68f
2:36 2 3 mph 1013.9mb 68f 68f
2:30 3 6 mph - 68f 68f
2:24 6 7 mph - 68f 68f
2:18 3 7 mph 1014.1mb 67f 68f
2:12 6 7 mph 1014mb 67f 68f
2:06 6 7 mph 1014mb 66f 69f
2:00 3 6 mph 1014mb 67f 68f
1:54 3 5 mph 1014.1mb 67f 68f
1:48 3 6 mph 1014.1mb 68f 69f
1:42 5 6 mph 1014.1mb 69f 68f
1:36 5 6 mph 1014mb 70f 69f
1:30 6
mph
1014.1mb 70f 69f
1:24 5 6 mph 1014.1mb 70f 68f
1:18 5 6 mph 1014.2mb 69f 69f
1:12 3 6 mph 1014.1mb 69f 69f
1:06 3 6 mph 1014.1mb 69f 68f
1:00 7 8 mph 1014.1mb 68f 68f
12:54 5 6 mph 1014.1mb 68f 68f
12:48 6 7 mph 1014.2mb 67f 68f
12:42 6 7 mph 1014.2mb 67f 68f
12:36 3 6 mph 1014.3mb 67f 68f
12:30 3 8 mph 1014.3mb 67f 68f
12:24 6 8 mph 1014.3mb 67f 68f
12:18 3 6 mph 1014.3mb 68f 68f
12:12 5 6 mph 1014.3mb 68f 68f
12:06 5 6 mph 1014.4mb 68f 68f
12:00 6 7 mph 1014.4mb 69f 68f
jeu. 07/02 11:54 5 6 mph 1014.4mb 70f 68f
11:48 2 3 mph - - 68f
11:42 3 6 mph - - 68f
11:36 5 7 mph - - 68f
11:30 5 7 mph 1014.5mb 72f 68f
11:24 2 6 mph 1014.4mb 72f 68f
11:18 6 7 mph 1014.4mb 72f 68f
11:12 6 7 mph 1014.4mb 72f 68f
11:06 3 8 mph 1014.4mb 72f 68f
11:00 6 8 mph 1014.4mb 72f 68f
10:54 3 9 mph 1014.4mb 72f 68f
10:48 7 8 mph 1014.3mb 72f 68f
10:42 5 6 mph 1014.3mb 72f 68f
10:36 2 3 mph 1014.2mb 72f 68f
10:30 2 3 mph 1014.2mb 72f 68f
10:24 2 6 mph 1014.2mb 72f 68f
10:18 5 7 mph 1014.2mb 72f 68f
10:12 6 7 mph 1014.2mb 72f 68f
10:06 5 6 mph 1014.2mb 72f 68f
10:00 3 7 mph 1014.1mb 72f 68f
9:54 6 7 mph 1014mb 72f 68f
9:48 5 6 mph 1014mb 72f 68f
9:42 5 6 mph 1014.1mb 72f 68f
9:36 5 6 mph 1014mb 72f 67f
9:30 6 7 mph 1014mb 72f 67f
9:24 6 7 mph 1014mb 72f 68f
9:18 6 7 mph 1013.9mb 72f 68f
9:12 6 7 mph 1013.8mb 72f 68f
9:06 6 7 mph 1013.8mb 72f 68f
9:00 6 7 mph 1013.7mb 72f 68f
8:54 6 7 mph 1013.7mb 72f 68f
8:48 5 8 mph 1013.6mb 72f 68f
8:42 5 8 mph 1013.6mb 72f 68f
8:36 6 9 mph 1013.5mb 72f 68f
8:30 7 9 mph 1013.3mb 72f 68f
8:24 7 8 mph 1013.4mb 72f 68f
8:18 6 8 mph 1013.4mb 72f 68f
8:12 7 8 mph 1013.3mb 72f 68f
8:06 7 8 mph 1013.2mb 72f 68f
8:00 7 9 mph 1013.2mb 72f 68f
7:54 7 9 mph 1013.2mb 72f 68f
7:48 9 11 mph 1013.1mb 72f 68f
7:42 10 11 mph 1013.1mb 72f 68f
7:36 9 10 mph 1013.2mb 73f 68f
7:30 9 10 mph 1013.1mb 73f 68f
7:24 7 9 mph 1013.1mb 73f 68f
7:18 7 9 mph 1013.1mb 73f 68f
7:12 9 10 mph 1013.1mb 73f 68f
7:06 9 10 mph 1013mb 73f 68f
7:00 8 11 mph 1013mb 73f 68f
6:54 8 9 mph 1013mb 73f 68f
6:48 8 9 mph 1013.1mb 73f 68f
6:42 8 10 mph 1013.1mb 73f 69f
6:36 9 11 mph 1013.1mb 73f 68f
6:30 9 11 mph 1013mb 73f 68f
6:24 9 11 mph 1013mb 73f 69f
6:18 10 11 mph 1013.1mb 73f 68f
6:12 9 11 mph 1013.1mb 73f 68f
6:06 10 11 mph 1013.1mb 73f 68f
6:00 10 13 mph 1013.1mb 73f 69f
5:54 9 10 mph 1013.2mb 73f 69f
5:48 9 11 mph 1013.2mb 73f 69f
5:42 10 11 mph 1013.3mb 73f 69f
5:36 9 10 mph 1013.4mb 73f 69f
5:30 7 9 mph 1013.4mb 73f 69f
5:24 7 9 mph 1013.5mb 73f 69f
5:18 8 10 mph 1013.4mb 72f 69f
5:12 7 9 mph 1013.6mb 73f 70f
5:06 7 9 mph 1013.6mb 72f 69f
5:00 7 9 mph 1013.6mb 72f 70f
4:54 7 10 mph 1013.7mb 72f 70f
4:48 8 10 mph 1013.8mb 72f 70f
4:42 8 10 mph 1013.8mb 71f 70f
4:36 7 10 mph 1013.9mb 71f 70f
4:30 7 10 mph 1014mb 70f 70f
4:24 8 10 mph 1014mb 71f 70f
4:18 8 10 mph 1014.1mb 70f 69f
4:12 9 10 mph 1014.2mb 70f 69f
4:06 8 10 mph 1014.2mb 69f 70f
4:00 8 10 mph 1014.3mb 69f 69f
3:54 8 10 mph 1014.3mb 68f 69f
3:48 9 10 mph 1014.2mb 68f 70f
3:42 8 9 mph 1014.1mb 67f 70f
3:36 7 9 mph 1014.2mb 67f 70f
3:30 7 9 mph 1014.2mb 67f 70f
3:24 7 9 mph 1014.2mb 67f 69f
3:18 8 11 mph 1014.4mb 67f 69f
3:12 9 10 mph 1014.5mb 67f 69f
3:06 8 9 mph 1014.4mb 67f 70f
3:00 8 10 mph 1014.5mb 67f 70f
2:54 9 10 mph 1014.5mb 67f 69f
2:48 8 10 mph 1014.6mb 68f 69f
2:42 8 10 mph 1014.6mb 68f 70f
2:36 8 10 mph 1014.6mb 68f 70f
2:30 8 9 mph 1014.6mb 69f 70f
2:24 7 9 mph 1014.5mb 70f 70f
2:18 7 8 mph 1014.6mb 70f 70f
2:12 7 9 mph 1014.5mb 70f 71f
2:06 6 8 mph 1014.5mb 71f 71f
2:00 6 9 mph 1014.5mb 71f 70f
1:54 8 9 mph 1014.6mb 71f 70f
1:48 7 8 mph 1014.7mb 71f 71f
1:42 6 9 mph 1014.8mb 71f 71f
1:36 7 9 mph 1014.9mb 71f 71f
1:30 6 8 mph 1015mb 71f 71f
1:24 7 8 mph 1015mb 71f 70f
1:18 8 9 mph 1015mb 71f 70f
1:12 7 9 mph 1014.9mb 71f 70f
1:06 8 9 mph 1014.9mb 71f 71f
1:00 7 9 mph 1015mb 71f 71f
12:54 7 9 mph 1015.1mb 71f 71f
12:48 6 8 mph 1015.2mb 71f 71f